Time;durP1;ratioP1;P1;durP2;ratioP2;P2;SDS_P1;SDS_P2;PMS_P1;PMS_P2;Temp;Humidity;BMP_temperature;BMP_pressure;BME280_temperature;BME280_humidity;BME280_pressure;Samples;Min_cycle;Max_cycle;Signal;HPM_P1;HPM_P2
2022/07/12 00:01:37;;;;;;;23.27;13.13;;;;;;;;;;4970475;28;20053;-74
2022/07/12 00:04:05;;;;;;;21.98;12.73;;;;;;;;;;4977782;28;20116;-73
2022/07/12 00:06:30;;;;;;;22.65;14.52;;;;;;;;;;4960730;28;20092;-73
2022/07/12 00:08:56;;;;;;;19.15;13.05;;;;;;;;;;4968025;28;20030;-74
2022/07/12 00:11:23;;;;;;;19.20;10.95;;;;;;;;;;4972129;28;20030;-73
2022/07/12 00:13:48;;;;;;;17.77;12.38;;;;;;;;;;4970282;28;20030;-73
2022/07/12 00:16:16;;;;;;;21.48;13.70;;;;;;;;;;4970243;28;20466;-73
2022/07/12 00:18:42;;;;;;;22.23;12.95;;;;;;;;;;4961436;28;20053;-73
2022/07/12 00:21:09;;;;;;;22.33;11.27;;;;;;;;;;4977408;28;20116;-73
2022/07/12 00:23:35;;;;;;;21.77;11.63;;;;;;;;;;4974261;28;20119;-74
2022/07/12 00:26:04;;;;;;;18.63;11.00;;;;;;;;;;4972233;28;20049;-75
2022/07/12 00:28:30;;;;;;;13.13;8.73;;;;;;;;;;4965305;28;20791;-73
2022/07/12 00:30:55;;;;;;;15.60;8.63;;;;;;;;;;4966456;28;20054;-74
2022/07/12 00:33:20;;;;;;;13.63;7.55;;;;;;;;;;4944646;28;20089;-74
2022/07/12 00:35:45;;;;;;;15.18;9.23;;;;;;;;;;4965193;28;20037;-74
2022/07/12 00:38:11;;;;;;;14.32;9.13;;;;;;;;;;4964349;28;20031;-74
2022/07/12 00:40:36;;;;;;;15.98;8.32;;;;;;;;;;4960229;28;20407;-74
2022/07/12 00:43:02;;;;;;;11.82;6.88;;;;;;;;;;4960409;28;20045;-72
2022/07/12 00:45:28;;;;;;;11.07;7.63;;;;;;;;;;4968405;28;20579;-73
2022/07/12 00:47:53;;;;;;;15.35;9.00;;;;;;;;;;4959812;28;20030;-74
2022/07/12 00:50:22;;;;;;;14.15;8.57;;;;;;;;;;4965663;28;20044;-74
2022/07/12 00:52:48;;;;;;;14.93;8.98;;;;;;;;;;4972379;28;20041;-73
2022/07/12 00:55:17;;;;;;;18.90;10.48;;;;;;;;;;4965633;28;20399;-73
2022/07/12 00:57:47;;;;;;;16.02;9.38;;;;;;;;;;4974240;28;20033;-73
2022/07/12 01:00:14;;;;;;;19.70;10.63;;;;;;;;;;4961833;28;20038;-73
2022/07/12 01:02:40;;;;;;;19.75;11.80;;;;;;;;;;4964056;28;20145;-74
2022/07/12 01:05:06;;;;;;;19.55;10.80;;;;;;;;;;4956561;28;20821;-72
2022/07/12 01:07:33;;;;;;;16.35;9.45;;;;;;;;;;4956599;28;20120;-72
2022/07/12 01:09:58;;;;;;;19.38;9.57;;;;;;;;;;4962354;28;20088;-72
2022/07/12 01:12:24;;;;;;;12.27;8.30;;;;;;;;;;4974678;28;20034;-72
2022/07/12 01:14:49;;;;;;;15.30;8.65;;;;;;;;;;4961593;28;20039;-74
2022/07/12 01:17:16;;;;;;;16.73;8.55;;;;;;;;;;4963052;28;20777;-74
2022/07/12 01:19:42;;;;;;;16.77;8.82;;;;;;;;;;4963412;28;20026;-73
2022/07/12 01:22:09;;;;;;;13.80;7.78;;;;;;;;;;4960110;28;20041;-73
2022/07/12 01:24:34;;;;;;;13.93;7.95;;;;;;;;;;4958874;28;20038;-73
2022/07/12 01:27:00;;;;;;;14.95;8.20;;;;;;;;;;4958354;28;20074;-74
2022/07/12 01:29:26;;;;;;;12.65;7.53;;;;;;;;;;4960566;28;20046;-73
2022/07/12 01:31:51;;;;;;;11.57;6.63;;;;;;;;;;4961436;28;20031;-73
2022/07/12 01:34:17;;;;;;;12.60;7.60;;;;;;;;;;4967036;28;20671;-73
2022/07/12 01:36:42;;;;;;;13.63;7.90;;;;;;;;;;4961773;28;20295;-72
2022/07/12 01:39:08;;;;;;;14.00;8.13;;;;;;;;;;4957754;28;20026;-73
2022/07/12 01:41:33;;;;;;;12.07;8.68;;;;;;;;;;4959565;28;20038;-74
2022/07/12 01:43:59;;;;;;;14.10;8.63;;;;;;;;;;4941585;28;20260;-73
2022/07/12 01:46:24;;;;;;;16.80;10.10;;;;;;;;;;4957664;28;20886;-74
2022/07/12 01:48:49;;;;;;;19.83;10.63;;;;;;;;;;4966600;28;21368;-74
2022/07/12 01:51:15;;;;;;;18.25;9.80;;;;;;;;;;4959480;28;20057;-74
2022/07/12 01:53:41;;;;;;;16.40;9.63;;;;;;;;;;4957727;28;20668;-73
2022/07/12 01:56:06;;;;;;;19.02;10.25;;;;;;;;;;4958931;28;20033;-73
2022/07/12 01:58:32;;;;;;;18.50;9.45;;;;;;;;;;4961518;28;20034;-73
2022/07/12 02:00:57;;;;;;;13.75;9.05;;;;;;;;;;4958149;28;20225;-72
2022/07/12 02:03:23;;;;;;;15.38;8.82;;;;;;;;;;4959272;28;20030;-71
2022/07/12 02:05:48;;;;;;;15.38;10.02;;;;;;;;;;4958510;28;20037;-73
2022/07/12 02:08:13;;;;;;;17.65;10.07;;;;;;;;;;4960779;28;20051;-72
2022/07/12 02:10:39;;;;;;;17.55;11.32;;;;;;;;;;4965435;28;20466;-72
2022/07/12 02:13:05;;;;;;;19.17;11.93;;;;;;;;;;4968652;28;20089;-72
2022/07/12 02:15:31;;;;;;;23.42;13.32;;;;;;;;;;4964942;28;20049;-73
2022/07/12 02:17:56;;;;;;;23.70;14.27;;;;;;;;;;4970627;28;20038;-73
2022/07/12 02:20:22;;;;;;;21.48;12.73;;;;;;;;;;4958830;28;20038;-73
2022/07/12 02:22:47;;;;;;;18.90;10.07;;;;;;;;;;4977559;28;20037;-73
2022/07/12 02:25:13;;;;;;;19.27;10.35;;;;;;;;;;4960915;28;20045;-73
2022/07/12 02:27:38;;;;;;;19.35;10.65;;;;;;;;;;4975565;28;20124;-73
2022/07/12 02:30:04;;;;;;;21.08;10.32;;;;;;;;;;4966277;28;21089;-73
2022/07/12 02:32:30;;;;;;;22.65;11.88;;;;;;;;;;4965307;28;20116;-73
2022/07/12 02:34:55;;;;;;;18.25;11.02;;;;;;;;;;4963860;28;20038;-73
2022/07/12 02:37:21;;;;;;;16.27;10.90;;;;;;;;;;4980800;28;20766;-75
2022/07/12 02:39:49;;;;;;;18.00;11.23;;;;;;;;;;4968843;28;20046;-73
2022/07/12 02:42:14;;;;;;;18.85;11.95;;;;;;;;;;4990501;28;20095;-74
2022/07/12 02:44:39;;;;;;;24.30;12.88;;;;;;;;;;4968316;28;20042;-73
2022/07/12 02:47:05;;;;;;;19.95;11.55;;;;;;;;;;4975080;28;20034;-74
2022/07/12 02:49:32;;;;;;;15.93;10.77;;;;;;;;;;4976188;28;20164;-73
2022/07/12 02:51:58;;;;;;;17.05;10.98;;;;;;;;;;4970713;28;20176;-74
2022/07/12 02:54:23;;;;;;;17.15;11.00;;;;;;;;;;4973990;28;20732;-74
2022/07/12 02:56:49;;;;;;;17.98;11.15;;;;;;;;;;4967094;28;20038;-74
2022/07/12 02:59:16;;;;;;;15.30;10.73;;;;;;;;;;4972465;28;20038;-74
2022/07/12 03:01:42;;;;;;;18.27;10.40;;;;;;;;;;4962578;28;20149;-73
2022/07/12 03:04:08;;;;;;;20.00;13.05;;;;;;;;;;4964142;28;20033;-73
2022/07/12 03:06:33;;;;;;;21.08;12.90;;;;;;;;;;4964184;28;20112;-69
2022/07/12 03:09:01;;;;;;;24.98;11.98;;;;;;;;;;4964329;28;20034;-73
2022/07/12 03:11:26;;;;;;;20.40;12.20;;;;;;;;;;4961476;28;20749;-73
2022/07/12 03:13:51;;;;;;;19.25;12.63;;;;;;;;;;4960940;28;20066;-73
2022/07/12 03:16:17;;;;;;;21.48;13.90;;;;;;;;;;4959930;28;20043;-73
2022/07/12 03:18:43;;;;;;;21.90;13.48;;;;;;;;;;4967371;28;20066;-72
2022/07/12 03:21:11;;;;;;;25.38;13.77;;;;;;;;;;4960222;28;20045;-73
2022/07/12 03:23:36;;;;;;;20.45;12.23;;;;;;;;;;4962166;28;20034;-74
2022/07/12 03:26:04;;;;;;;19.13;10.52;;;;;;;;;;4958067;28;20623;-73
2022/07/12 03:28:29;;;;;;;17.50;9.77;;;;;;;;;;4962803;28;20085;-73
2022/07/12 03:30:55;;;;;;;18.23;9.40;;;;;;;;;;4961934;28;20035;-73
2022/07/12 03:33:20;;;;;;;20.67;9.20;;;;;;;;;;4958607;28;20069;-72
2022/07/12 03:35:45;;;;;;;16.20;10.00;;;;;;;;;;4932877;28;20041;-72
2022/07/12 03:38:11;;;;;;;14.55;9.40;;;;;;;;;;4962199;28;20389;-74
2022/07/12 03:40:36;;;;;;;18.27;9.73;;;;;;;;;;4966952;28;20048;-74
2022/07/12 03:43:01;;;;;;;18.92;9.48;;;;;;;;;;4960220;28;20177;-73
2022/07/12 03:45:27;;;;;;;16.73;9.57;;;;;;;;;;4959462;28;20093;-73
2022/07/12 03:47:53;;;;;;;14.85;7.75;;;;;;;;;;4964638;28;20985;-73
2022/07/12 03:50:18;;;;;;;11.32;7.10;;;;;;;;;;4962108;28;20030;-74
2022/07/12 03:52:44;;;;;;;13.25;7.97;;;;;;;;;;4962216;28;20034;-74
2022/07/12 03:55:10;;;;;;;15.20;8.30;;;;;;;;;;4961796;28;20027;-73
2022/07/12 03:57:41;;;;;;;14.77;7.80;;;;;;;;;;4942974;28;20038;-74
2022/07/12 04:00:11;;;;;;;14.25;8.32;;;;;;;;;;4963167;28;20023;-74
2022/07/12 04:02:37;;;;;;;16.05;9.25;;;;;;;;;;4961882;28;20669;-74
2022/07/12 04:05:03;;;;;;;13.35;8.05;;;;;;;;;;4959306;28;20030;-75
2022/07/12 04:07:28;;;;;;;13.98;7.95;;;;;;;;;;4964675;28;20088;-75
2022/07/12 04:09:54;;;;;;;13.23;7.20;;;;;;;;;;4964168;28;20068;-73
2022/07/12 04:12:21;;;;;;;12.82;7.43;;;;;;;;;;4959752;28;20053;-74
2022/07/12 04:14:51;;;;;;;15.60;8.10;;;;;;;;;;4958844;28;20050;-74
2022/07/12 04:17:17;;;;;;;15.18;8.38;;;;;;;;;;4968861;28;20614;-74
2022/07/12 04:19:43;;;;;;;21.30;10.90;;;;;;;;;;4960855;28;20057;-74
2022/07/12 04:22:08;;;;;;;18.73;10.55;;;;;;;;;;4959177;28;20499;-74
2022/07/12 04:24:33;;;;;;;19.90;10.05;;;;;;;;;;4958828;28;20145;-74
2022/07/12 04:26:59;;;;;;;17.30;9.55;;;;;;;;;;4955912;28;20746;-74
2022/07/12 04:29:26;;;;;;;16.30;8.75;;;;;;;;;;4959327;28;20069;-73
2022/07/12 04:31:52;;;;;;;17.08;8.55;;;;;;;;;;4953204;28;20920;-73
2022/07/12 04:34:17;;;;;;;15.07;8.07;;;;;;;;;;4956299;28;20050;-74
2022/07/12 04:36:47;;;;;;;13.13;8.98;;;;;;;;;;4960826;28;20881;-74
2022/07/12 04:39:12;;;;;;;16.38;8.98;;;;;;;;;;4958474;28;20040;-74
2022/07/12 04:41:38;;;;;;;19.83;10.23;;;;;;;;;;4960552;28;20725;-73
2022/07/12 04:44:06;;;;;;;17.15;9.10;;;;;;;;;;4956975;28;20721;-75
2022/07/12 04:46:32;;;;;;;17.45;8.98;;;;;;;;;;4962445;28;20124;-69
2022/07/12 04:48:58;;;;;;;11.98;8.10;;;;;;;;;;4962480;28;20601;-70
2022/07/12 04:51:24;;;;;;;13.35;7.85;;;;;;;;;;4971853;28;20041;-68
2022/07/12 04:53:49;;;;;;;13.93;7.78;;;;;;;;;;4976227;28;20041;-69
2022/07/12 04:56:15;;;;;;;14.07;6.90;;;;;;;;;;4963047;28;20034;-70
2022/07/12 04:58:40;;;;;;;15.23;6.47;;;;;;;;;;4970680;28;20065;-70
2022/07/12 05:01:07;;;;;;;21.75;7.03;;;;;;;;;;4978478;28;20141;-69
2022/07/12 05:03:32;;;;;;;18.85;7.60;;;;;;;;;;4971271;28;20137;-70
2022/07/12 05:05:58;;;;;;;19.35;7.38;;;;;;;;;;4974006;28;20050;-68
2022/07/12 05:08:23;;;;;;;19.25;7.65;;;;;;;;;;4971787;28;20125;-69
2022/07/12 05:10:48;;;;;;;17.50;7.38;;;;;;;;;;4971457;28;20039;-68
2022/07/12 05:13:14;;;;;;;21.25;7.50;;;;;;;;;;4971988;28;20092;-68
2022/07/12 05:15:39;;;;;;;17.33;7.63;;;;;;;;;;4968488;28;20167;-71
2022/07/12 05:18:04;;;;;;;15.48;7.57;;;;;;;;;;4967165;28;20034;-70
2022/07/12 05:20:29;;;;;;;19.58;8.40;;;;;;;;;;4978065;28;20068;-68
2022/07/12 05:22:58;;;;;;;22.92;9.68;;;;;;;;;;4982473;28;20043;-68
2022/07/12 05:25:23;;;;;;;18.50;9.38;;;;;;;;;;4971056;28;20027;-69
2022/07/12 05:27:48;;;;;;;25.30;10.55;;;;;;;;;;4969546;28;20522;-71
2022/07/12 05:30:16;;;;;;;26.02;11.65;;;;;;;;;;4972369;28;20037;-70
2022/07/12 05:32:41;;;;;;;33.67;14.48;;;;;;;;;;4972557;28;20125;-70
2022/07/12 05:35:07;;;;;;;29.85;14.02;;;;;;;;;;4970242;28;20054;-69
2022/07/12 05:37:32;;;;;;;30.17;13.45;;;;;;;;;;4971374;28;20066;-69
2022/07/12 05:39:58;;;;;;;30.45;12.65;;;;;;;;;;4974361;28;20030;-69
2022/07/12 05:42:23;;;;;;;25.23;10.90;;;;;;;;;;4984313;28;20038;-69
2022/07/12 05:44:48;;;;;;;30.80;13.15;;;;;;;;;;4971477;28;20128;-69
2022/07/12 05:47:13;;;;;;;27.17;12.05;;;;;;;;;;4970688;28;20125;-69
2022/07/12 05:49:41;;;;;;;24.73;12.43;;;;;;;;;;4975621;28;20046;-68
2022/07/12 05:54:55;;;;;;;23.80;12.88;;;;;;;;;;4967893;28;20479;-68
2022/07/12 05:57:23;;;;;;;32.22;12.88;;;;;;;;;;4954431;28;20133;-69
2022/07/12 05:59:48;;;;;;;25.33;11.73;;;;;;;;;;4970972;28;20035;-67
2022/07/12 06:02:14;;;;;;;21.65;10.18;;;;;;;;;;4975928;28;20053;-67
2022/07/12 06:04:41;;;;;;;23.67;11.02;;;;;;;;;;4972165;28;20086;-68
2022/07/12 06:07:07;;;;;;;22.40;10.73;;;;;;;;;;4975142;28;20046;-68
2022/07/12 06:09:32;;;;;;;20.30;9.15;;;;;;;;;;4975884;28;20062;-68
2022/07/12 06:12:00;;;;;;;24.77;10.00;;;;;;;;;;4973263;28;20065;-68
2022/07/12 06:14:28;;;;;;;24.85;11.88;;;;;;;;;;4968117;28;20121;-70
2022/07/12 06:16:53;;;;;;;27.33;11.85;;;;;;;;;;4946072;28;20133;-70
2022/07/12 06:19:18;;;;;;;26.80;12.13;;;;;;;;;;4960464;28;20341;-70
2022/07/12 06:21:44;;;;;;;25.60;11.68;;;;;;;;;;4960705;28;20042;-70
2022/07/12 06:24:09;;;;;;;23.52;9.52;;;;;;;;;;4963098;28;20739;-69
2022/07/12 06:26:34;;;;;;;27.13;10.82;;;;;;;;;;4962574;28;20140;-69
2022/07/12 06:29:00;;;;;;;27.83;12.70;;;;;;;;;;4960775;28;20096;-69
2022/07/12 06:31:25;;;;;;;28.90;12.30;;;;;;;;;;4962421;28;20030;-69
2022/07/12 06:33:51;;;;;;;21.95;10.63;;;;;;;;;;4942844;28;20342;-69
2022/07/12 06:36:16;;;;;;;28.05;10.52;;;;;;;;;;4962065;28;20422;-70
2022/07/12 06:38:43;;;;;;;19.38;8.90;;;;;;;;;;4962484;28;20030;-70
2022/07/12 06:41:10;;;;;;;23.52;9.63;;;;;;;;;;4959934;28;20733;-70
2022/07/12 06:43:36;;;;;;;16.67;8.25;;;;;;;;;;4969731;28;20039;-71
2022/07/12 06:46:01;;;;;;;21.70;9.05;;;;;;;;;;4972965;28;20046;-70
2022/07/12 06:48:26;;;;;;;15.48;7.22;;;;;;;;;;4958418;28;20393;-70
2022/07/12 06:50:52;;;;;;;23.83;9.00;;;;;;;;;;4975877;28;20038;-70
2022/07/12 06:53:17;;;;;;;19.35;8.27;;;;;;;;;;4980908;28;20045;-70
2022/07/12 06:55:42;;;;;;;16.40;8.05;;;;;;;;;;4975966;28;20026;-71
2022/07/12 06:58:08;;;;;;;12.93;7.22;;;;;;;;;;4979780;28;21036;-71
2022/07/12 07:00:37;;;;;;;11.07;6.18;;;;;;;;;;4962003;28;20101;-70
2022/07/12 07:03:08;;;;;;;10.73;5.55;;;;;;;;;;4973158;28;20126;-71
2022/07/12 07:05:36;;;;;;;7.47;5.18;;;;;;;;;;4970149;28;20130;-72
2022/07/12 07:08:02;;;;;;;11.50;5.88;;;;;;;;;;4976380;28;20133;-70
2022/07/12 07:10:27;;;;;;;7.35;4.57;;;;;;;;;;4973988;28;20034;-70
2022/07/12 07:12:53;;;;;;;8.18;3.80;;;;;;;;;;4976831;28;20049;-71
2022/07/12 07:15:18;;;;;;;9.40;5.50;;;;;;;;;;4979585;28;20066;-70
2022/07/12 07:17:46;;;;;;;9.70;5.53;;;;;;;;;;4979480;28;20514;-69
2022/07/12 07:20:12;;;;;;;10.07;5.00;;;;;;;;;;4973994;28;20208;-70
2022/07/12 07:22:39;;;;;;;7.97;5.50;;;;;;;;;;4977405;28;20196;-70
2022/07/12 07:25:06;;;;;;;9.95;6.97;;;;;;;;;;4971905;28;20030;-69
2022/07/12 07:27:34;;;;;;;6.35;4.80;;;;;;;;;;4976036;28;20062;-71
2022/07/12 07:32:44;;;;;;;6.57;5.18;;;;;;;;;;4974591;28;20034;-71
2022/07/12 07:35:10;;;;;;;6.75;4.50;;;;;;;;;;4968117;28;20030;-67
2022/07/12 07:37:35;;;;;;;5.15;4.65;;;;;;;;;;4976806;28;20654;-72
2022/07/12 07:40:01;;;;;;;5.85;3.72;;;;;;;;;;4981975;28;20084;-71
2022/07/12 07:42:26;;;;;;;4.80;4.22;;;;;;;;;;4984908;28;20046;-71
2022/07/12 07:44:54;;;;;;;5.45;3.40;;;;;;;;;;4965691;28;20041;-71
2022/07/12 07:47:19;;;;;;;8.68;4.10;;;;;;;;;;4983443;28;20112;-71
2022/07/12 07:49:47;;;;;;;5.60;3.20;;;;;;;;;;4984722;28;20491;-70
2022/07/12 07:52:14;;;;;;;3.45;3.05;;;;;;;;;;4983468;28;20035;-71
2022/07/12 07:54:40;;;;;;;4.22;3.17;;;;;;;;;;4989692;28;20045;-69
2022/07/12 07:57:10;;;;;;;5.07;4.05;;;;;;;;;;4986364;28;20467;-68
2022/07/12 07:59:38;;;;;;;4.63;3.40;;;;;;;;;;4980216;28;20031;-69
2022/07/12 08:02:05;;;;;;;4.20;3.10;;;;;;;;;;4978792;28;20053;-68
2022/07/12 08:04:30;;;;;;;4.38;3.45;;;;;;;;;;4982748;28;20030;-69
2022/07/12 08:06:58;;;;;;;4.63;3.50;;;;;;;;;;4961764;28;20038;-68
2022/07/12 08:09:24;;;;;;;5.50;5.00;;;;;;;;;;4965216;28;20041;-69
2022/07/12 08:11:51;;;;;;;6.13;5.10;;;;;;;;;;4979662;28;20134;-70
2022/07/12 08:14:19;;;;;;;5.60;3.90;;;;;;;;;;4980672;28;20077;-70
2022/07/12 08:16:46;;;;;;;7.15;4.70;;;;;;;;;;4982023;28;20492;-69
2022/07/12 08:19:12;;;;;;;5.88;5.25;;;;;;;;;;4945961;28;20064;-70
2022/07/12 08:21:37;;;;;;;8.30;5.85;;;;;;;;;;4978954;28;20054;-70
2022/07/12 08:24:03;;;;;;;7.53;4.97;;;;;;;;;;4977036;28;20038;-71
2022/07/12 08:26:28;;;;;;;8.13;6.97;;;;;;;;;;4977177;28;20038;-70
2022/07/12 08:28:54;;;;;;;8.57;5.60;;;;;;;;;;4981681;28;20030;-70
2022/07/12 08:31:19;;;;;;;7.75;5.28;;;;;;;;;;4980908;28;20030;-69
2022/07/12 08:33:44;;;;;;;7.53;4.95;;;;;;;;;;4981469;28;20034;-69
2022/07/12 08:36:10;;;;;;;4.70;2.97;;;;;;;;;;4981616;28;20030;-70
2022/07/12 08:38:36;;;;;;;3.95;3.13;;;;;;;;;;4981567;28;20392;-70
2022/07/12 08:41:02;;;;;;;3.42;2.47;;;;;;;;;;4981865;28;20555;-69
2022/07/12 08:43:28;;;;;;;4.65;3.17;;;;;;;;;;4980020;28;20132;-69
2022/07/12 08:45:53;;;;;;;5.30;3.08;;;;;;;;;;4983819;28;20175;-69
2022/07/12 08:48:18;;;;;;;4.05;2.10;;;;;;;;;;4983520;28;20702;-70
2022/07/12 08:50:59;;;;;;;5.93;2.88;;;;;;;;;;4980959;28;20057;-69
2022/07/12 08:53:26;;;;;;;7.47;5.43;;;;;;;;;;4981552;28;20085;-68
2022/07/12 08:55:52;;;;;;;6.50;5.47;;;;;;;;;;4988202;28;20486;-70
2022/07/12 08:58:19;;;;;;;6.80;5.80;;;;;;;;;;4983525;28;20047;-69
2022/07/12 09:00:44;;;;;;;9.18;5.90;;;;;;;;;;4982550;28;20058;-70
2022/07/12 09:03:12;;;;;;;6.97;4.68;;;;;;;;;;4982669;28;20034;-68
2022/07/12 09:05:46;;;;;;;6.10;3.38;;;;;;;;;;4978939;28;20038;-70
2022/07/12 09:08:12;;;;;;;5.22;3.78;;;;;;;;;;4983207;28;20026;-69
2022/07/12 09:10:52;;;;;;;4.13;3.13;;;;;;;;;;4979511;28;20030;-69
2022/07/12 09:13:17;;;;;;;9.00;4.85;;;;;;;;;;4980674;28;20101;-69
2022/07/12 09:15:43;;;;;;;5.45;3.95;;;;;;;;;;4980346;28;20117;-70
2022/07/12 09:18:15;;;;;;;6.45;3.85;;;;;;;;;;4985534;28;20403;-71
2022/07/12 09:20:49;;;;;;;6.68;4.03;;;;;;;;;;4972688;28;20046;-68
2022/07/12 09:23:15;;;;;;;5.63;3.85;;;;;;;;;;4963500;28;20550;-68
2022/07/12 09:25:43;;;;;;;7.75;4.05;;;;;;;;;;4967732;28;20034;-68
2022/07/12 09:28:09;;;;;;;6.18;4.10;;;;;;;;;;4974248;28;20045;-68
2022/07/12 09:30:37;;;;;;;6.85;4.30;;;;;;;;;;4966850;28;20035;-67
2022/07/12 09:36:15;;;;;;;6.32;4.57;;;;;;;;;;5004226;28;20578;-67
2022/07/12 09:38:40;;;;;;;7.22;4.70;;;;;;;;;;4969961;28;20038;-68
2022/07/12 09:41:08;;;;;;;7.88;5.03;;;;;;;;;;4966704;28;20458;-66
2022/07/12 09:43:33;;;;;;;9.27;6.50;;;;;;;;;;4970476;28;20027;-66
2022/07/12 09:46:00;;;;;;;10.57;7.70;;;;;;;;;;4964276;28;20030;-67
2022/07/12 09:48:29;;;;;;;9.60;8.55;;;;;;;;;;4964445;28;20037;-66
2022/07/12 09:50:57;;;;;;;11.02;8.23;;;;;;;;;;4969167;28;20038;-67
2022/07/12 09:53:22;;;;;;;13.73;9.45;;;;;;;;;;4969669;28;20034;-68
2022/07/12 09:55:49;;;;;;;13.48;8.88;;;;;;;;;;4980456;28;20034;-68
2022/07/12 09:58:17;;;;;;;14.13;8.80;;;;;;;;;;4969199;28;20031;-69
2022/07/12 10:00:43;;;;;;;12.88;9.65;;;;;;;;;;4970536;28;20045;-68
2022/07/12 10:03:11;;;;;;;13.65;10.27;;;;;;;;;;4964627;28;20523;-67
2022/07/12 10:05:41;;;;;;;12.20;9.23;;;;;;;;;;4969143;28;20550;-66
2022/07/12 10:08:07;;;;;;;11.83;9.77;;;;;;;;;;4966316;28;20052;-68
2022/07/12 10:10:32;;;;;;;12.43;10.20;;;;;;;;;;4964775;28;20679;-67
2022/07/12 10:12:58;;;;;;;12.88;9.98;;;;;;;;;;4967818;28;20107;-67
2022/07/12 10:15:27;;;;;;;16.67;10.70;;;;;;;;;;4987841;28;20474;-67
2022/07/12 10:17:58;;;;;;;14.40;10.80;;;;;;;;;;4963000;28;20127;-67
2022/07/12 10:20:26;;;;;;;16.27;12.93;;;;;;;;;;4965247;28;20057;-68
2022/07/12 10:22:56;;;;;;;14.23;11.95;;;;;;;;;;4966092;28;20076;-67
2022/07/12 10:25:31;;;;;;;13.38;11.23;;;;;;;;;;4962888;28;20033;-67
2022/07/12 10:27:58;;;;;;;15.48;11.60;;;;;;;;;;4971316;28;20035;-67
2022/07/12 10:30:23;;;;;;;15.45;11.10;;;;;;;;;;4965536;28;20035;-68
2022/07/12 10:32:49;;;;;;;10.95;9.85;;;;;;;;;;4963476;28;20907;-67
2022/07/12 10:35:19;;;;;;;12.30;9.95;;;;;;;;;;4963550;28;20042;-68
2022/07/12 10:38:02;;;;;;;10.93;9.82;;;;;;;;;;4962774;28;20031;-66
2022/07/12 10:40:33;;;;;;;11.85;8.60;;;;;;;;;;4963480;28;20038;-69
2022/07/12 10:43:04;;;;;;;12.07;9.60;;;;;;;;;;4964630;28;20050;-67
2022/07/12 10:45:29;;;;;;;;;;;;;;;;;;4969224;28;20992;-68
2022/07/12 10:47:54;;;;;;;10.73;8.23;;;;;;;;;;4965757;28;20036;-68
2022/07/12 10:50:40;;;;;;;9.70;8.70;;;;;;;;;;4965324;28;20107;-68
2022/07/12 10:53:20;;;;;;;13.05;9.02;;;;;;;;;;4965524;28;20126;-66
2022/07/12 10:56:04;;;;;;;9.73;8.60;;;;;;;;;;4977468;28;20064;-68
2022/07/12 10:59:01;;;;;;;14.30;10.15;;;;;;;;;;4963001;28;20041;-70
2022/07/12 11:01:27;;;;;;;10.88;9.35;;;;;;;;;;4955022;28;20629;-67
2022/07/12 11:04:02;;;;;;;11.88;8.80;;;;;;;;;;4959938;28;20044;-69
2022/07/12 11:06:27;;;;;;;10.77;8.23;;;;;;;;;;4963021;28;20185;-68
2022/07/12 11:08:53;;;;;;;12.77;9.48;;;;;;;;;;4963796;28;20931;-68
2022/07/12 11:11:21;;;;;;;13.20;8.48;;;;;;;;;;4964522;28;20022;-66
2022/07/12 11:13:49;;;;;;;8.95;7.72;;;;;;;;;;4962716;28;20741;-67
2022/07/12 11:16:15;;;;;;;11.52;8.48;;;;;;;;;;4979194;28;20046;-67
2022/07/12 11:18:40;;;;;;;9.50;7.80;;;;;;;;;;4970912;28;20042;-68
2022/07/12 11:21:06;;;;;;;10.38;7.72;;;;;;;;;;4963690;28;20742;-68
2022/07/12 11:23:31;;;;;;;10.70;6.85;;;;;;;;;;4964230;28;20467;-69
2022/07/12 11:26:05;;;;;;;7.97;7.00;;;;;;;;;;4946837;28;20030;-68
2022/07/12 11:28:31;;;;;;;8.82;7.10;;;;;;;;;;4965834;28;20141;-67
2022/07/12 11:31:09;;;;;;;7.47;6.60;;;;;;;;;;4964096;28;20757;-67
2022/07/12 11:33:39;;;;;;;10.05;7.63;;;;;;;;;;4966562;28;20034;-66
2022/07/12 11:36:12;;;;;;;9.13;6.75;;;;;;;;;;4963507;28;20101;-70
2022/07/12 11:38:39;;;;;;;12.20;7.68;;;;;;;;;;4962482;28;20042;-67
2022/07/12 11:41:05;;;;;;;10.77;6.85;;;;;;;;;;4945608;28;20116;-68
2022/07/12 11:43:33;;;;;;;8.93;6.80;;;;;;;;;;4983631;28;21052;-67
2022/07/12 11:46:00;;;;;;;9.20;7.05;;;;;;;;;;4920059;28;20023;-66
2022/07/12 11:48:32;;;;;;;9.23;7.85;;;;;;;;;;4961945;28;20018;-66
2022/07/12 11:51:00;;;;;;;7.35;6.35;;;;;;;;;;4961219;28;20026;-67
2022/07/12 11:53:26;;;;;;;7.93;6.75;;;;;;;;;;4959814;28;20035;-70
2022/07/12 11:55:56;;;;;;;11.20;6.88;;;;;;;;;;4966887;28;20660;-65
2022/07/12 11:58:22;;;;;;;8.60;7.20;;;;;;;;;;4963502;28;20053;-66
2022/07/12 12:00:48;;;;;;;9.07;6.95;;;;;;;;;;4957059;28;20840;-68
2022/07/12 12:03:16;;;;;;;7.72;6.78;;;;;;;;;;4962656;28;20051;-69
2022/07/12 12:05:41;;;;;;;8.50;7.60;;;;;;;;;;4960691;28;20034;-67
2022/07/12 12:08:07;;;;;;;8.55;7.72;;;;;;;;;;4966266;28;20044;-69
2022/07/12 12:10:35;;;;;;;10.45;7.50;;;;;;;;;;4964947;28;20029;-69
2022/07/12 12:13:01;;;;;;;8.65;6.25;;;;;;;;;;4965475;28;20065;-69
2022/07/12 12:15:33;;;;;;;9.75;8.20;;;;;;;;;;4950488;28;20921;-73
2022/07/12 12:18:04;;;;;;;10.10;8.60;;;;;;;;;;4964454;28;20049;-70
2022/07/12 12:20:34;;;;;;;7.60;6.90;;;;;;;;;;4988508;28;20834;-69
2022/07/12 12:23:05;;;;;;;11.32;8.05;;;;;;;;;;4961533;28;20092;-68
2022/07/12 12:25:32;;;;;;;12.30;8.63;;;;;;;;;;4961992;28;20129;-69
2022/07/12 12:28:01;;;;;;;9.80;8.80;;;;;;;;;;4967169;28;20041;-68
2022/07/12 12:30:27;;;;;;;10.93;9.15;;;;;;;;;;4963272;28;20145;-68
2022/07/12 12:32:57;;;;;;;10.27;8.98;;;;;;;;;;4967670;28;20034;-68
2022/07/12 12:35:35;;;;;;;12.63;9.32;;;;;;;;;;4950389;28;20846;-68
2022/07/12 12:38:12;;;;;;;10.90;9.23;;;;;;;;;;4964270;28;20108;-67
2022/07/12 12:40:37;;;;;;;9.70;8.70;;;;;;;;;;4965908;28;20761;-67
2022/07/12 12:43:14;;;;;;;11.00;9.40;;;;;;;;;;4965633;28;20057;-67
2022/07/12 12:45:58;;;;;;;15.55;8.77;;;;;;;;;;4961620;28;20266;-67
2022/07/12 12:48:24;;;;;;;10.60;9.35;;;;;;;;;;4956751;28;20220;-67
2022/07/12 12:50:50;;;;;;;12.25;9.98;;;;;;;;;;4960212;28;20030;-67
2022/07/12 12:53:18;;;;;;;14.85;10.70;;;;;;;;;;4964879;28;20088;-68
2022/07/12 12:55:47;;;;;;;12.65;11.35;;;;;;;;;;4959764;28;20038;-64
2022/07/12 12:58:15;;;;;;;13.63;12.27;;;;;;;;;;4961142;28;20034;-68
2022/07/12 13:00:42;;;;;;;14.45;10.90;;;;;;;;;;4961887;28;20038;-68
2022/07/12 13:03:08;;;;;;;13.52;12.10;;;;;;;;;;4958506;28;20073;-67
2022/07/12 13:05:34;;;;;;;16.17;13.05;;;;;;;;;;4964965;28;20734;-68
2022/07/12 13:08:01;;;;;;;17.10;12.95;;;;;;;;;;4961071;28;20034;-67
2022/07/12 13:10:26;;;;;;;18.83;14.43;;;;;;;;;;4962456;28;20446;-69
2022/07/12 13:12:52;;;;;;;17.75;13.15;;;;;;;;;;4961185;28;20626;-69
2022/07/12 13:15:19;;;;;;;20.38;15.73;;;;;;;;;;4966857;28;20050;-68
2022/07/12 13:17:45;;;;;;;18.23;14.40;;;;;;;;;;4965076;28;20487;-68
2022/07/12 13:20:12;;;;;;;17.85;14.82;;;;;;;;;;4962009;28;20039;-68
2022/07/12 13:22:38;;;;;;;18.98;16.08;;;;;;;;;;4963661;28;20144;-68
2022/07/12 13:25:04;;;;;;;22.17;18.45;;;;;;;;;;4971650;28;20116;-68
2022/07/12 13:27:29;;;;;;;22.60;20.20;;;;;;;;;;4961467;28;20110;-68
2022/07/12 13:29:55;;;;;;;21.65;19.20;;;;;;;;;;4961351;28;20342;-68
2022/07/12 13:32:20;;;;;;;22.60;19.48;;;;;;;;;;4962569;28;20037;-68
2022/07/12 13:34:50;;;;;;;24.65;20.63;;;;;;;;;;4958363;28;20494;-67
2022/07/12 13:37:16;;;;;;;26.80;20.35;;;;;;;;;;4958129;28;20732;-68
2022/07/12 13:42:36;;;;;;;26.52;20.55;;;;;;;;;;4955459;28;20048;-67
2022/07/12 13:45:02;;;;;;;22.33;19.83;;;;;;;;;;4971375;28;20034;-68
2022/07/12 13:47:27;;;;;;;19.98;17.65;;;;;;;;;;4948510;28;20035;-68
2022/07/12 13:49:54;;;;;;;22.42;18.25;;;;;;;;;;4967462;28;20042;-68
2022/07/12 13:52:20;;;;;;;20.02;16.50;;;;;;;;;;4963194;28;20085;-68
2022/07/12 13:54:47;;;;;;;22.95;17.50;;;;;;;;;;4961371;28;20035;-67
2022/07/12 13:57:12;;;;;;;19.00;16.20;;;;;;;;;;4960192;28;20034;-67
2022/07/12 13:59:38;;;;;;;20.95;15.52;;;;;;;;;;4961493;28;20042;-68
2022/07/12 14:02:03;;;;;;;17.77;14.95;;;;;;;;;;4960361;28;20076;-70
2022/07/12 14:04:29;;;;;;;17.30;15.45;;;;;;;;;;4962110;28;20947;-67
2022/07/12 14:06:55;;;;;;;19.00;13.35;;;;;;;;;;4961827;28;20037;-67
2022/07/12 14:09:20;;;;;;;17.90;12.82;;;;;;;;;;4965113;28;20042;-67
2022/07/12 14:11:46;;;;;;;14.60;11.60;;;;;;;;;;4968575;28;20034;-63
2022/07/12 14:14:11;;;;;;;13.98;10.88;;;;;;;;;;4958965;28;20034;-65
2022/07/12 14:16:36;;;;;;;12.07;8.20;;;;;;;;;;4956764;28;20046;-66
2022/07/12 14:19:03;;;;;;;7.43;5.93;;;;;;;;;;4959566;28;20035;-69
2022/07/12 14:21:29;;;;;;;10.55;7.53;;;;;;;;;;4963566;28;20089;-69
2022/07/12 14:23:55;;;;;;;12.35;8.98;;;;;;;;;;4964243;28;20038;-69
2022/07/12 14:26:20;;;;;;;12.13;9.65;;;;;;;;;;4963800;28;20424;-70
2022/07/12 14:28:45;;;;;;;11.70;10.32;;;;;;;;;;4946887;28;20031;-69
2022/07/12 14:31:11;;;;;;;12.10;9.30;;;;;;;;;;4964011;28;20041;-69
2022/07/12 14:33:38;;;;;;;12.13;9.30;;;;;;;;;;4965805;28;20048;-71
2022/07/12 14:36:06;;;;;;;10.65;8.43;;;;;;;;;;4960758;28;20057;-71
2022/07/12 14:38:31;;;;;;;10.25;8.07;;;;;;;;;;4963980;28;20782;-71